createdAt,value
2018-11-22T00:00:51.358Z,16.50
2018-11-22T00:01:51.384Z,16.80
2018-11-22T00:02:51.384Z,17.00
2018-11-22T00:03:51.398Z,17.00
2018-11-22T00:04:51.401Z,16.50
2018-11-22T00:05:51.426Z,19.80
2018-11-22T00:06:51.423Z,18.80
2018-11-22T00:07:51.441Z,17.20
2018-11-22T00:08:51.451Z,18.20
2018-11-22T00:09:51.457Z,18.10
2018-11-22T00:10:51.469Z,17.70
2018-11-22T00:11:51.481Z,17.50
2018-11-22T00:12:51.495Z,17.30
2018-11-22T00:13:51.499Z,17.40
2018-11-22T00:14:51.510Z,17.60
2018-11-22T00:15:51.527Z,17.30
2018-11-22T00:16:51.546Z,17.10
2018-11-22T00:17:51.543Z,17.50
2018-11-22T00:18:51.555Z,18.10
2018-11-22T00:19:51.564Z,17.70
2018-11-22T00:20:51.572Z,17.80
2018-11-22T00:21:51.581Z,18.50
2018-11-22T00:22:51.599Z,17.70
2018-11-22T00:23:51.610Z,17.60
2018-11-22T00:24:51.621Z,17.60
2018-11-22T00:25:51.627Z,18.20
2018-11-22T00:26:51.639Z,18.20
2018-11-22T00:27:51.645Z,18.00
2018-11-22T00:28:51.657Z,18.00
2018-11-22T00:29:51.661Z,18.40
2018-11-22T00:30:51.730Z,18.60
2018-11-22T00:31:51.689Z,18.50
2018-11-22T00:32:51.701Z,19.00
2018-11-22T00:33:51.712Z,18.20
2018-11-22T00:34:51.723Z,18.30
2018-11-22T00:35:51.731Z,18.50
2018-11-22T00:36:51.748Z,18.60
2018-11-22T00:37:51.758Z,18.50
2018-11-22T00:38:51.768Z,19.10
2018-11-22T00:39:51.775Z,19.20
2018-11-22T00:40:51.788Z,18.40
2018-11-22T00:41:51.804Z,18.50
2018-11-22T00:42:51.814Z,18.70
2018-11-22T00:43:51.822Z,18.10
2018-11-22T00:44:51.829Z,18.80
2018-11-22T00:45:51.837Z,18.80
2018-11-22T00:46:51.858Z,18.70
2018-11-22T00:47:51.860Z,18.30
2018-11-22T00:48:51.875Z,18.40
2018-11-22T00:49:51.879Z,18.80
2018-11-22T00:50:51.901Z,18.40
2018-11-22T00:51:51.899Z,18.70
2018-11-22T00:52:51.916Z,18.10
2018-11-22T00:53:51.923Z,17.70
2018-11-22T00:54:51.939Z,18.70
2018-11-22T00:55:51.956Z,18.80
2018-11-22T00:56:51.954Z,18.70
2018-11-22T00:57:51.967Z,18.90
2018-11-22T00:58:51.987Z,18.80
2018-11-22T00:59:51.992Z,18.60
2018-11-22T01:00:52.002Z,18.80
2018-11-22T01:01:52.009Z,18.60
2018-11-22T01:02:52.029Z,18.30
2018-11-22T01:03:52.033Z,18.30
2018-11-22T01:04:52.048Z,18.10
2018-11-22T01:05:52.045Z,18.90
2018-11-22T01:06:52.067Z,18.80
2018-11-22T01:07:52.072Z,18.40
2018-11-22T01:08:52.091Z,18.50
2018-11-22T01:09:52.100Z,18.60
2018-11-22T01:10:52.106Z,19.10
2018-11-22T01:11:52.116Z,19.10
2018-11-22T01:12:52.122Z,19.20
2018-11-22T01:13:52.142Z,18.70
2018-11-22T01:14:52.145Z,19.90
2018-11-22T01:15:52.176Z,19.30
2018-11-22T01:16:52.171Z,19.10
2018-11-22T01:17:52.182Z,19.30
2018-11-22T01:18:52.204Z,19.20
2018-11-22T01:19:52.211Z,19.60
2018-11-22T01:20:52.218Z,19.70
2018-11-22T01:21:52.222Z,19.90
2018-11-22T01:22:52.243Z,19.60
2018-11-22T01:23:52.250Z,20.20
2018-11-22T01:24:52.259Z,19.80
2018-11-22T01:25:52.289Z,20.20
2018-11-22T01:26:52.277Z,20.60
2018-11-22T01:27:52.289Z,20.40
2018-11-22T01:28:52.302Z,20.80
2018-11-22T01:29:52.322Z,20.70
2018-11-22T01:30:52.316Z,21.30
2018-11-22T01:31:52.340Z,20.20
2018-11-22T01:32:52.345Z,20.70
2018-11-22T01:33:52.355Z,21.50
2018-11-22T01:34:52.363Z,21.00
2018-11-22T01:35:52.379Z,21.10
2018-11-22T01:36:52.387Z,21.10
2018-11-22T01:37:52.393Z,20.70
2018-11-22T01:38:52.406Z,20.60
2018-11-22T01:39:52.416Z,20.60
2018-11-22T01:40:52.427Z,20.90
2018-11-22T01:41:52.436Z,20.30
2018-11-22T01:42:52.455Z,20.60
2018-11-22T01:43:52.462Z,20.80
2018-11-22T01:44:52.487Z,20.20
2018-11-22T01:45:52.487Z,20.80
2018-11-22T01:46:52.494Z,21.20
2018-11-22T01:47:52.504Z,20.60
2018-11-22T01:48:52.515Z,21.60
2018-11-22T01:49:52.526Z,20.80
2018-11-22T01:50:52.545Z,21.00
2018-11-22T01:51:52.546Z,20.40
2018-11-22T01:52:52.555Z,21.00
2018-11-22T01:53:52.573Z,20.70
2018-11-22T01:54:52.582Z,21.10
2018-11-22T01:55:52.592Z,20.20
2018-11-22T01:56:52.605Z,21.10
2018-11-22T01:57:52.617Z,21.20
2018-11-22T01:58:52.646Z,21.20
2018-11-22T01:59:52.635Z,20.20
2018-11-22T02:00:52.645Z,21.10
2018-11-22T02:01:52.659Z,21.20
2018-11-22T02:02:52.667Z,20.30
2018-11-22T02:03:52.679Z,20.70
2018-11-22T02:04:52.689Z,20.30
2018-11-22T02:05:52.700Z,20.20
2018-11-22T02:06:52.709Z,20.40
2018-11-22T02:07:52.718Z,21.40
2018-11-22T02:08:52.738Z,21.70
2018-11-22T02:09:52.743Z,22.70
2018-11-22T02:10:52.755Z,21.80
2018-11-22T02:11:52.763Z,23.50
2018-11-22T02:12:52.776Z,23.10
2018-11-22T02:13:52.781Z,23.90
2018-11-22T02:14:52.795Z,23.80
2018-11-22T02:15:52.815Z,25.60
2018-11-22T02:16:52.819Z,25.60
2018-11-22T02:17:52.835Z,25.00
2018-11-22T02:18:52.843Z,26.50
2018-11-22T02:19:52.851Z,26.90
2018-11-22T02:20:52.871Z,26.70
2018-11-22T02:21:52.872Z,27.10
2018-11-22T02:22:52.881Z,27.30
2018-11-22T02:23:52.906Z,27.50
2018-11-22T02:24:52.927Z,27.90
2018-11-22T02:25:52.931Z,28.10
2018-11-22T02:26:52.931Z,29.20
2018-11-22T02:27:52.937Z,28.20
2018-11-22T02:28:52.947Z,29.10
2018-11-22T02:29:52.958Z,29.00
2018-11-22T02:30:52.971Z,29.30
2018-11-22T02:31:52.975Z,29.10
2018-11-22T02:32:53.519Z,29.40
2018-11-22T02:33:53.005Z,30.00
2018-11-22T02:34:53.010Z,30.80
2018-11-22T02:35:53.018Z,29.30
2018-11-22T02:36:54.017Z,31.10
2018-11-22T02:37:53.045Z,29.00
2018-11-22T02:38:53.061Z,30.00
2018-11-22T02:39:53.069Z,30.30
2018-11-22T02:40:53.085Z,31.40
2018-11-22T02:41:53.093Z,31.10
2018-11-22T02:42:53.093Z,31.40
2018-11-22T02:43:53.111Z,31.20
2018-11-22T02:44:53.126Z,31.50
2018-11-22T02:45:53.130Z,31.00
2018-11-22T02:46:53.139Z,30.80
2018-11-22T02:47:53.149Z,32.20
2018-11-22T02:48:53.161Z,31.50
2018-11-22T02:49:53.177Z,31.30
2018-11-22T02:50:53.183Z,30.90
2018-11-22T02:51:53.188Z,31.60
2018-11-22T02:52:53.204Z,31.40
2018-11-22T02:53:53.217Z,31.50
2018-11-22T02:54:53.225Z,30.50
2018-11-22T02:55:53.235Z,31.80
2018-11-22T02:56:53.237Z,32.10
2018-11-22T02:57:53.258Z,31.40
2018-11-22T02:58:53.267Z,31.60
2018-11-22T02:59:53.276Z,32.10
2018-11-22T03:00:53.283Z,31.40
2018-11-22T03:01:53.318Z,32.10
2018-11-22T03:02:53.319Z,32.50
2018-11-22T03:03:53.322Z,32.40
2018-11-22T03:04:53.326Z,32.10
2018-11-22T03:05:53.338Z,31.10
2018-11-22T03:06:53.357Z,32.00
2018-11-22T03:07:53.353Z,33.20
2018-11-22T03:08:53.370Z,32.20
2018-11-22T03:09:53.378Z,32.50
2018-11-22T03:10:53.398Z,32.70
2018-11-22T03:11:53.397Z,32.50
2018-11-22T03:12:53.420Z,32.60
2018-11-22T03:13:53.416Z,34.80
2018-11-22T03:14:53.437Z,33.80
2018-11-22T03:15:53.487Z,33.00
2018-11-22T03:16:53.453Z,33.10
2018-11-22T03:17:53.474Z,35.20
2018-11-22T03:18:53.482Z,33.60
2018-11-22T03:19:53.631Z,33.70
2018-11-22T03:20:53.497Z,34.10
2018-11-22T03:21:53.564Z,34.20
2018-11-22T03:22:53.540Z,34.60
2018-11-22T03:23:53.555Z,34.70
2018-11-22T03:24:53.543Z,34.20
2018-11-22T03:25:53.608Z,33.50
2018-11-22T03:26:53.568Z,34.20
2018-11-22T03:27:53.581Z,34.60
2018-11-22T03:28:53.581Z,34.30
2018-11-22T03:29:53.599Z,33.80
2018-11-22T03:30:53.605Z,35.30
2018-11-22T03:31:53.617Z,34.60
2018-11-22T03:32:53.625Z,35.00
2018-11-22T03:33:53.639Z,33.70
2018-11-22T03:34:53.651Z,34.40
2018-11-22T03:35:53.653Z,34.50
2018-11-22T03:36:53.671Z,34.30
2018-11-22T03:37:53.682Z,35.30
2018-11-22T03:38:53.695Z,34.40
2018-11-22T03:39:53.700Z,34.50
2018-11-22T03:40:53.698Z,33.60
2018-11-22T03:41:53.723Z,34.50
2018-11-22T03:42:53.730Z,34.90
2018-11-22T03:43:53.737Z,34.80
2018-11-22T03:44:53.751Z,34.70
2018-11-22T03:45:53.771Z,35.80
2018-11-22T03:46:53.771Z,35.60
2018-11-22T03:47:53.790Z,34.90
2018-11-22T03:48:53.807Z,35.00
2018-11-22T03:49:53.804Z,35.70
2018-11-22T03:50:53.832Z,36.00
2018-11-22T03:51:53.824Z,35.20
2018-11-22T03:52:53.835Z,35.40
2018-11-22T03:53:53.845Z,34.80
2018-11-22T03:54:53.861Z,35.10
2018-11-22T03:55:53.864Z,35.90
2018-11-22T03:56:53.887Z,35.10
2018-11-22T03:57:53.901Z,35.70
2018-11-22T03:58:53.898Z,35.10
2018-11-22T03:59:53.907Z,35.10
2018-11-22T04:00:53.926Z,35.30
2018-11-22T04:01:53.933Z,36.40
2018-11-22T04:02:53.937Z,35.70
2018-11-22T04:03:53.953Z,35.30
2018-11-22T04:04:53.965Z,35.00
2018-11-22T04:05:53.971Z,35.30
2018-11-22T04:06:53.977Z,35.20
2018-11-22T04:07:53.998Z,35.40
2018-11-22T04:08:54.001Z,35.50
2018-11-22T04:09:54.019Z,35.60
2018-11-22T04:10:54.029Z,35.50
2018-11-22T04:11:54.037Z,36.00
2018-11-22T04:12:54.043Z,35.80
2018-11-22T04:13:54.058Z,35.70
2018-11-22T04:14:54.075Z,36.50
2018-11-22T04:15:54.082Z,35.90
2018-11-22T04:16:54.089Z,35.80
2018-11-22T04:17:54.103Z,35.90
2018-11-22T04:18:54.110Z,35.80
2018-11-22T04:19:54.123Z,35.70
2018-11-22T04:20:54.135Z,35.70
2018-11-22T04:21:54.142Z,35.40
2018-11-22T04:22:54.156Z,35.30
2018-11-22T04:23:54.160Z,35.40
2018-11-22T04:24:54.174Z,36.10
2018-11-22T04:25:54.183Z,34.90
2018-11-22T04:26:54.207Z,36.40
2018-11-22T04:27:54.211Z,35.10
2018-11-22T04:28:54.214Z,35.80
2018-11-22T04:29:54.230Z,36.10
2018-11-22T04:30:54.236Z,36.10
2018-11-22T04:31:54.248Z,35.30
2018-11-22T04:32:54.254Z,35.90
2018-11-22T04:33:54.266Z,34.90
2018-11-22T04:34:54.284Z,35.50
2018-11-22T04:35:54.283Z,35.30
2018-11-22T04:36:54.299Z,35.20
2018-11-22T04:37:54.304Z,36.00
2018-11-22T04:38:54.319Z,34.50
2018-11-22T04:39:54.327Z,35.10
2018-11-22T04:40:54.340Z,35.80
2018-11-22T04:41:54.360Z,35.70
2018-11-22T04:42:54.360Z,35.80
2018-11-22T04:43:54.380Z,35.90
2018-11-22T04:44:54.387Z,35.60
2018-11-22T04:45:54.398Z,35.90
2018-11-22T04:46:54.396Z,35.40
2018-11-22T04:47:54.426Z,35.60
2018-11-22T04:48:54.420Z,36.00
2018-11-22T04:49:54.434Z,35.50
2018-11-22T04:50:54.448Z,35.40
2018-11-22T04:51:54.455Z,35.80
2018-11-22T04:52:54.466Z,36.00
2018-11-22T04:53:54.479Z,36.00
2018-11-22T04:54:54.484Z,34.20
2018-11-22T04:55:54.498Z,36.20
2018-11-22T04:56:54.516Z,35.70
2018-11-22T04:57:57.964Z,35.80
2018-11-22T04:58:54.528Z,34.90
2018-11-22T04:59:54.535Z,36.20
2018-11-22T05:00:54.553Z,35.20
2018-11-22T05:01:54.558Z,36.30
2018-11-22T05:02:54.564Z,35.80
2018-11-22T05:03:54.582Z,35.70
2018-11-22T05:04:54.593Z,36.90
2018-11-22T05:05:54.599Z,35.50
2018-11-22T05:06:54.616Z,35.90
2018-11-22T05:07:54.621Z,36.40
2018-11-22T05:08:54.633Z,35.40
2018-11-22T05:09:54.647Z,35.90
2018-11-22T05:10:54.653Z,36.00
2018-11-22T05:11:54.669Z,35.90
2018-11-22T05:12:54.677Z,36.10
2018-11-22T05:13:54.689Z,35.30
2018-11-22T05:14:54.688Z,35.70
2018-11-22T05:15:54.700Z,35.60
2018-11-22T05:16:54.714Z,35.90
2018-11-22T05:17:54.735Z,35.70
2018-11-22T05:18:54.735Z,36.00
2018-11-22T05:19:54.751Z,36.10
2018-11-22T05:20:54.752Z,35.80
2018-11-22T05:21:54.769Z,36.00
2018-11-22T05:22:54.779Z,36.40
2018-11-22T05:23:54.791Z,35.70
2018-11-22T05:24:54.809Z,36.10
2018-11-22T05:25:54.818Z,35.30
2018-11-22T05:26:54.828Z,35.80
2018-11-22T05:27:54.830Z,36.50
2018-11-22T05:28:54.850Z,35.80
2018-11-22T05:29:54.853Z,36.50
2018-11-22T05:30:54.863Z,36.50
2018-11-22T05:31:54.871Z,35.90
2018-11-22T05:32:54.876Z,37.10
2018-11-22T05:33:54.885Z,37.80
2018-11-22T05:34:54.908Z,36.60
2018-11-22T05:35:54.914Z,36.70
2018-11-22T05:36:54.924Z,36.30
2018-11-22T05:37:54.927Z,36.40
2018-11-22T05:38:54.946Z,36.10
2018-11-22T05:39:54.950Z,37.40
2018-11-22T05:40:54.962Z,35.50
2018-11-22T05:41:54.972Z,37.00
2018-11-22T05:42:54.984Z,36.50
2018-11-22T05:43:54.991Z,37.10
2018-11-22T05:44:55.008Z,36.80
2018-11-22T05:45:55.013Z,36.70
2018-11-22T05:46:55.030Z,36.10
2018-11-22T05:47:55.036Z,36.50
2018-11-22T05:48:55.046Z,36.20
2018-11-22T05:49:55.064Z,36.20
2018-11-22T05:50:55.078Z,38.00
2018-11-22T05:51:55.067Z,37.00
2018-11-22T05:52:55.079Z,36.80
2018-11-22T05:53:55.096Z,36.20
2018-11-22T05:54:55.115Z,36.90
2018-11-22T05:55:55.121Z,36.60
2018-11-22T05:56:55.125Z,36.40
2018-11-22T05:57:55.150Z,37.00
2018-11-22T05:58:55.146Z,36.30
2018-11-22T05:59:55.155Z,35.70
2018-11-22T06:00:55.170Z,35.70
2018-11-22T06:01:55.184Z,36.30
2018-11-22T06:02:55.183Z,35.30
2018-11-22T06:03:55.194Z,36.50
2018-11-22T06:04:55.206Z,35.90
2018-11-22T06:05:55.217Z,35.50
2018-11-22T06:06:55.236Z,36.30
2018-11-22T06:07:55.238Z,37.20
2018-11-22T06:08:55.256Z,36.50
2018-11-22T06:09:55.254Z,36.00
2018-11-22T06:10:55.275Z,36.90
2018-11-22T06:11:55.286Z,36.40
2018-11-22T06:12:55.294Z,36.10
2018-11-22T06:13:55.300Z,36.70
2018-11-22T06:14:55.307Z,37.30
2018-11-22T06:15:55.320Z,36.50
2018-11-22T06:16:55.324Z,36.90
2018-11-22T06:17:55.346Z,36.30
2018-11-22T06:18:55.422Z,36.70
2018-11-22T06:19:55.363Z,36.40
2018-11-22T06:20:55.373Z,35.50
2018-11-22T06:21:55.382Z,36.30
2018-11-22T06:22:55.398Z,36.80
2018-11-22T06:23:55.400Z,36.50
2018-11-22T06:24:55.411Z,36.30
2018-11-22T06:25:55.419Z,37.20
2018-11-22T06:26:55.434Z,36.90
2018-11-22T06:27:55.439Z,37.20
2018-11-22T06:28:55.453Z,36.80
2018-11-22T06:29:55.463Z,37.10
2018-11-22T06:30:55.483Z,36.90
2018-11-22T06:31:55.483Z,36.90
2018-11-22T06:32:55.493Z,36.50
2018-11-22T06:33:55.495Z,37.00
2018-11-22T06:34:55.527Z,37.60
2018-11-22T06:35:55.522Z,36.50
2018-11-22T06:36:55.543Z,37.70
2018-11-22T06:37:55.684Z,36.20
2018-11-22T06:38:55.555Z,37.90
2018-11-22T06:39:55.561Z,37.10
2018-11-22T06:40:55.564Z,37.10
2018-11-22T06:41:55.573Z,36.40
2018-11-22T06:42:55.607Z,36.00
2018-11-22T06:43:55.633Z,36.90
2018-11-22T06:44:55.619Z,36.90
2018-11-22T06:45:55.628Z,37.40
2018-11-22T06:46:55.637Z,36.90
2018-11-22T06:47:56.539Z,36.80
2018-11-22T06:48:55.652Z,36.80
2018-11-22T06:49:55.668Z,35.90
2018-11-22T06:50:58.222Z,37.50
2018-11-22T06:51:55.696Z,36.80
2018-11-22T06:52:55.695Z,37.20
2018-11-22T06:53:55.710Z,36.60
2018-11-22T06:54:55.712Z,36.80
2018-11-22T06:55:55.723Z,37.00
2018-11-22T06:56:55.732Z,37.80
2018-11-22T06:57:55.750Z,36.70
2018-11-22T06:58:55.754Z,37.20
2018-11-22T06:59:55.766Z,36.70
2018-11-22T07:00:55.773Z,37.30
2018-11-22T07:01:55.784Z,38.10
2018-11-22T07:02:55.845Z,37.80
2018-11-22T07:03:55.818Z,37.20
2018-11-22T07:04:55.811Z,36.60
2018-11-22T07:05:55.819Z,36.80
2018-11-22T07:06:55.835Z,35.90
2018-11-22T07:07:55.850Z,36.80
2018-11-22T07:08:55.860Z,37.40
2018-11-22T07:09:55.864Z,37.30
2018-11-22T07:10:55.870Z,36.90
2018-11-22T07:11:55.880Z,37.50
2018-11-22T07:12:55.890Z,36.80
2018-11-22T07:13:55.906Z,36.70
2018-11-22T07:14:55.909Z,35.60
2018-11-22T07:15:55.925Z,37.60
2018-11-22T07:16:55.944Z,36.30
2018-11-22T07:17:55.950Z,36.80
2018-11-22T07:18:55.956Z,37.20
2018-11-22T07:19:55.972Z,36.80
2018-11-22T07:20:55.977Z,36.30
2018-11-22T07:21:55.982Z,37.20
2018-11-22T07:22:56.222Z,36.30
2018-11-22T07:23:56.013Z,36.80
2018-11-22T07:24:56.005Z,36.80
2018-11-22T07:25:56.037Z,36.10
2018-11-22T07:26:56.023Z,37.00
2018-11-22T07:27:56.047Z,36.90
2018-11-22T07:28:57.039Z,37.20
2018-11-22T07:29:56.067Z,36.80
2018-11-22T07:30:56.076Z,36.60
2018-11-22T07:31:56.095Z,37.70
2018-11-22T07:32:56.124Z,37.20
2018-11-22T07:33:56.111Z,36.40
2018-11-22T07:34:56.122Z,37.10
2018-11-22T07:35:56.129Z,37.00
2018-11-22T07:36:56.185Z,37.40
2018-11-22T07:37:56.145Z,36.70
2018-11-22T07:38:56.193Z,37.20
2018-11-22T07:39:56.177Z,36.70
2018-11-22T07:40:56.175Z,37.40
2018-11-22T07:41:56.195Z,37.30
2018-11-22T07:42:56.188Z,36.80
2018-11-22T07:43:56.218Z,37.70
2018-11-22T07:44:56.235Z,37.40
2018-11-22T07:45:56.229Z,37.30
2018-11-22T07:46:56.242Z,36.00
2018-11-22T07:47:56.253Z,37.70
2018-11-22T07:48:56.261Z,36.90
2018-11-22T07:49:56.269Z,37.10
2018-11-22T07:50:56.276Z,37.40
2018-11-22T07:51:56.284Z,36.70
2018-11-22T07:52:56.294Z,37.50
2018-11-22T07:53:56.311Z,37.20
2018-11-22T07:54:56.319Z,36.50
2018-11-22T07:55:56.332Z,37.60
2018-11-22T07:56:56.339Z,37.50
2018-11-22T07:57:56.354Z,37.50
2018-11-22T07:58:56.353Z,36.90
2018-11-22T07:59:56.372Z,37.30
2018-11-22T08:00:56.383Z,38.00
2018-11-22T08:01:56.392Z,37.30
2018-11-22T08:02:56.407Z,37.30
2018-11-22T08:03:56.413Z,37.50
2018-11-22T08:04:56.421Z,37.30
2018-11-22T08:05:56.433Z,37.40
2018-11-22T08:06:56.449Z,38.20
2018-11-22T08:07:56.459Z,37.70
2018-11-22T08:08:56.460Z,36.40
2018-11-22T08:09:56.469Z,36.70
2018-11-22T08:10:56.480Z,37.20
2018-11-22T08:11:56.492Z,36.80
2018-11-22T08:12:56.526Z,36.70
2018-11-22T08:13:56.517Z,36.90
2018-11-22T08:14:56.531Z,36.40
2018-11-22T08:15:56.532Z,36.50
2018-11-22T08:16:56.544Z,37.20
2018-11-22T08:17:56.556Z,36.80
2018-11-22T08:18:56.556Z,38.10
2018-11-22T08:19:56.564Z,36.50
2018-11-22T08:20:56.597Z,37.20
2018-11-22T08:21:56.593Z,37.70
2018-11-22T08:22:56.600Z,37.00
2018-11-22T08:23:56.615Z,38.40
2018-11-22T08:24:56.630Z,36.70
2018-11-22T08:25:56.625Z,38.20
2018-11-22T08:26:56.643Z,37.50
2018-11-22T08:27:56.649Z,38.30
2018-11-22T08:28:56.663Z,38.80
2018-11-22T08:29:56.681Z,37.50
2018-11-22T08:30:56.687Z,37.10
2018-11-22T08:31:56.695Z,38.00
2018-11-22T08:32:56.704Z,37.70
2018-11-22T08:33:56.717Z,37.80
2018-11-22T08:34:56.726Z,38.90
2018-11-22T08:35:56.737Z,37.10
2018-11-22T08:36:56.820Z,37.80
2018-11-22T08:37:56.755Z,37.00
2018-11-22T08:38:56.796Z,38.40
2018-11-22T08:39:56.773Z,37.50
2018-11-22T08:40:56.783Z,37.10
2018-11-22T08:41:56.791Z,38.30
2018-11-22T08:42:56.822Z,36.50
2018-11-22T08:43:56.821Z,37.40
2018-11-22T08:44:56.833Z,36.80
2018-11-22T08:45:56.854Z,38.00
2018-11-22T08:46:56.848Z,37.30
2018-11-22T08:47:56.857Z,37.50
2018-11-22T08:48:56.863Z,36.20
2018-11-22T08:49:56.879Z,37.70
2018-11-22T08:50:56.881Z,37.40
2018-11-22T08:51:56.905Z,36.70
2018-11-22T08:52:56.909Z,36.30
2018-11-22T08:53:56.923Z,37.20
2018-11-22T08:54:56.923Z,38.10
2018-11-22T08:55:56.945Z,37.80
2018-11-22T08:56:56.952Z,36.50
2018-11-22T08:57:56.961Z,37.50
2018-11-22T08:58:56.978Z,37.10
2018-11-22T08:59:56.980Z,37.40
2018-11-22T09:00:56.996Z,37.20
2018-11-22T09:01:57.008Z,35.80
2018-11-22T09:02:57.014Z,36.90
2018-11-22T09:03:57.030Z,36.90
2018-11-22T09:04:57.028Z,37.30
2018-11-22T09:05:57.036Z,36.00
2018-11-22T09:06:57.062Z,36.60
2018-11-22T09:07:57.058Z,36.30
2018-11-22T09:08:57.078Z,35.40
2018-11-22T09:10:02.368Z,35.70
2018-11-22T09:10:57.100Z,35.50
2018-11-22T09:11:57.104Z,35.10
2018-11-22T09:12:57.116Z,36.00
2018-11-22T09:13:57.129Z,34.90
2018-11-22T09:14:57.142Z,36.10
2018-11-22T09:15:57.149Z,35.40
2018-11-22T09:16:57.166Z,37.40
2018-11-22T09:17:57.166Z,36.30
2018-11-22T09:18:57.190Z,35.70
2018-11-22T09:19:57.190Z,33.80
2018-11-22T09:20:57.200Z,34.70
2018-11-22T09:21:57.218Z,34.90
2018-11-22T09:22:57.216Z,34.60
2018-11-22T09:23:57.248Z,34.70
2018-11-22T09:24:57.238Z,35.10
2018-11-22T09:25:57.246Z,33.60
2018-11-22T09:26:57.281Z,33.10
2018-11-22T09:27:57.280Z,33.60
2018-11-22T09:28:57.283Z,33.10
2018-11-22T09:29:57.292Z,34.50
2018-11-22T09:30:57.296Z,35.80
2018-11-22T09:31:57.315Z,33.90
2018-11-22T09:32:57.333Z,34.50
2018-11-22T09:33:57.338Z,33.80
2018-11-22T09:34:57.346Z,34.30
2018-11-22T09:35:57.356Z,33.60
2018-11-22T09:36:57.381Z,34.30
2018-11-22T09:37:57.385Z,33.30
2018-11-22T09:38:57.390Z,33.90
2018-11-22T09:39:57.398Z,32.90
2018-11-22T09:40:57.414Z,33.60
2018-11-22T09:41:57.423Z,33.60
2018-11-22T09:42:57.428Z,34.00
2018-11-22T09:43:57.442Z,32.90
2018-11-22T09:44:57.460Z,33.50
2018-11-22T09:45:57.458Z,34.40
2018-11-22T09:46:57.472Z,33.80
2018-11-22T09:47:57.488Z,32.90
2018-11-22T09:48:57.494Z,33.70
2018-11-22T09:49:57.505Z,33.20
2018-11-22T09:50:57.521Z,34.90
2018-11-22T09:51:57.527Z,33.20
2018-11-22T09:52:57.548Z,33.20
2018-11-22T09:53:57.552Z,32.20
2018-11-22T09:54:57.566Z,33.30
2018-11-22T09:55:57.574Z,33.30
2018-11-22T09:56:57.594Z,33.30
2018-11-22T09:57:57.594Z,34.10
2018-11-22T09:58:57.609Z,33.70
2018-11-22T09:59:57.615Z,31.90
2018-11-22T10:00:57.635Z,32.20
2018-11-22T10:01:57.639Z,32.60
2018-11-22T10:02:57.681Z,33.70
2018-11-22T10:03:57.791Z,32.50
2018-11-22T10:04:57.856Z,34.30
2018-11-22T10:05:57.694Z,32.50
2018-11-22T10:06:57.688Z,33.20
2018-11-22T10:07:57.701Z,31.90
2018-11-22T10:08:57.716Z,32.70
2018-11-22T10:09:57.721Z,31.90
2018-11-22T10:10:57.733Z,31.40
2018-11-22T10:11:57.748Z,31.80
2018-11-22T10:12:57.760Z,32.10
2018-11-22T10:13:57.837Z,31.80
2018-11-22T10:14:57.777Z,32.00
2018-11-22T10:15:57.813Z,33.60
2018-11-22T10:16:57.855Z,33.20
2018-11-22T10:17:57.801Z,32.30
2018-11-22T10:18:57.840Z,31.50
2018-11-22T10:19:57.833Z,32.40
2018-11-22T10:20:57.851Z,31.70
2018-11-22T10:21:57.841Z,31.30
2018-11-22T10:22:57.867Z,31.30
2018-11-22T10:23:57.929Z,31.40
2018-11-22T10:24:57.898Z,31.10
2018-11-22T10:25:57.899Z,31.10
2018-11-22T10:26:57.909Z,31.60
2018-11-22T10:27:57.920Z,30.80
2018-11-22T10:28:57.931Z,31.30
2018-11-22T10:29:57.947Z,31.60
2018-11-22T10:30:57.966Z,30.30
2018-11-22T10:31:57.960Z,31.00
2018-11-22T10:32:57.979Z,30.30
2018-11-22T10:33:57.982Z,30.90
2018-11-22T10:34:58.008Z,29.70
2018-11-22T10:35:58.010Z,29.60
2018-11-22T10:36:58.018Z,29.60
2018-11-22T10:37:58.184Z,29.50
2018-11-22T10:38:58.095Z,29.80
2018-11-22T10:39:58.061Z,30.90
2018-11-22T10:40:58.059Z,30.30
2018-11-22T10:41:58.068Z,29.90
2018-11-22T10:42:58.085Z,29.80
2018-11-22T10:43:58.097Z,29.60
2018-11-22T10:44:58.113Z,29.70
2018-11-22T10:45:58.120Z,29.60
2018-11-22T10:46:58.127Z,29.60
2018-11-22T10:47:58.153Z,30.60
2018-11-22T10:48:58.142Z,30.30
2018-11-22T10:49:58.177Z,29.10
2018-11-22T10:50:58.173Z,29.10
2018-11-22T10:51:58.191Z,28.70
2018-11-22T10:52:58.193Z,28.60
2018-11-22T10:53:58.229Z,28.20
2018-11-22T10:54:58.334Z,28.50
2018-11-22T10:55:58.228Z,28.00
2018-11-22T10:56:58.243Z,28.00
2018-11-22T10:57:58.249Z,28.00
2018-11-22T10:58:58.273Z,27.60
2018-11-22T10:59:58.277Z,26.30
2018-11-22T11:00:58.297Z,27.60
2018-11-22T11:01:58.298Z,25.60
2018-11-22T11:02:58.358Z,26.40
2018-11-22T11:03:58.323Z,27.50
2018-11-22T11:04:58.327Z,26.80
2018-11-22T11:05:58.344Z,26.10
2018-11-22T11:06:58.359Z,26.00
2018-11-22T11:07:58.388Z,26.10
2018-11-22T11:08:58.375Z,25.70
2018-11-22T11:09:58.384Z,25.30
2018-11-22T11:10:58.402Z,24.90
2018-11-22T11:11:58.417Z,25.90
2018-11-22T11:12:58.422Z,25.80
2018-11-22T11:13:58.427Z,25.70
2018-11-22T11:14:58.457Z,25.70
2018-11-22T11:15:58.467Z,25.40
2018-11-22T11:16:58.471Z,26.00
2018-11-22T11:17:58.484Z,25.90
2018-11-22T11:18:58.500Z,26.00
2018-11-22T11:19:58.499Z,26.10
2018-11-22T11:20:58.501Z,26.00
2018-11-22T11:21:58.522Z,26.40
2018-11-22T11:22:58.530Z,26.90
2018-11-22T11:23:58.547Z,26.60
2018-11-22T11:24:58.542Z,25.40
2018-11-22T11:25:58.561Z,25.50
2018-11-22T11:26:58.570Z,25.60
2018-11-22T11:27:58.585Z,26.00
2018-11-22T11:28:58.596Z,26.10
2018-11-22T11:29:58.603Z,26.10
2018-11-22T11:30:58.618Z,25.70
2018-11-22T11:31:58.627Z,26.20
2018-11-22T11:32:58.630Z,25.40
2018-11-22T11:33:59.179Z,26.20
2018-11-22T11:34:58.665Z,25.70
2018-11-22T11:35:58.669Z,25.70
2018-11-22T11:36:58.680Z,25.80
2018-11-22T11:37:58.696Z,25.60
2018-11-22T11:38:58.706Z,25.40
2018-11-22T11:40:00.705Z,25.50
2018-11-22T11:40:58.726Z,24.50
2018-11-22T11:41:58.730Z,24.50
2018-11-22T11:42:58.748Z,24.60
2018-11-22T11:43:58.756Z,24.40
2018-11-22T11:44:58.766Z,25.00
2018-11-22T11:45:58.784Z,25.00
2018-11-22T11:46:59.575Z,25.00
2018-11-22T11:47:58.801Z,24.70
2018-11-22T11:48:58.814Z,25.00
2018-11-22T11:49:58.824Z,25.00
2018-11-22T11:50:58.840Z,25.30
2018-11-22T11:51:58.850Z,25.60
2018-11-22T11:52:58.855Z,25.50
2018-11-22T11:53:58.866Z,25.90
2018-11-22T11:54:58.879Z,25.40
2018-11-22T11:55:58.892Z,24.60
2018-11-22T11:56:58.900Z,25.00
2018-11-22T11:57:58.916Z,25.50
2018-11-22T11:58:58.924Z,25.60
2018-11-22T11:59:58.938Z,25.00
2018-11-22T12:00:58.972Z,25.30
2018-11-22T12:01:58.966Z,26.10
2018-11-22T12:02:58.972Z,25.40
2018-11-22T12:03:58.984Z,25.30
2018-11-22T12:04:58.994Z,25.00
2018-11-22T12:05:59.012Z,25.80
2018-11-22T12:06:59.016Z,25.50
2018-11-22T12:07:59.050Z,25.20
2018-11-22T12:08:59.040Z,25.70
2018-11-22T12:09:59.054Z,26.00
2018-11-22T12:10:59.064Z,25.60
2018-11-22T12:11:59.076Z,25.40
2018-11-22T12:12:59.086Z,25.00
2018-11-22T12:13:59.098Z,25.50
2018-11-22T12:14:59.110Z,25.00
2018-11-22T12:15:59.115Z,24.60
2018-11-22T12:16:59.137Z,24.00
2018-11-22T12:17:59.148Z,24.00
2018-11-22T12:18:59.162Z,23.60
2018-11-22T12:19:59.475Z,24.70
2018-11-22T12:20:59.184Z,24.50
2018-11-22T12:21:59.181Z,24.70
2018-11-22T12:22:59.196Z,24.70
2018-11-22T12:23:59.208Z,24.00
2018-11-22T12:24:59.223Z,24.80
2018-11-22T12:25:59.225Z,25.00
2018-11-22T12:26:59.242Z,24.90
2018-11-22T12:27:59.279Z,25.40
2018-11-22T12:28:59.258Z,25.10
2018-11-22T12:29:59.284Z,24.60
2018-11-22T12:31:06.250Z,25.30
2018-11-22T12:31:59.298Z,24.80
2018-11-22T12:32:59.330Z,24.60
2018-11-22T12:33:59.319Z,24.70
2018-11-22T12:34:59.336Z,25.50
2018-11-22T12:35:59.377Z,25.60
2018-11-22T12:36:59.354Z,24.90
2018-11-22T12:37:59.368Z,25.50
2018-11-22T12:38:59.389Z,26.50
2018-11-22T12:39:59.395Z,25.60
2018-11-22T12:40:59.414Z,25.30
2018-11-22T12:41:59.433Z,25.50
2018-11-22T12:42:59.419Z,26.00
2018-11-22T12:43:59.442Z,26.70
2018-11-22T12:44:59.561Z,25.50
2018-11-22T12:45:59.467Z,25.80
2018-11-22T12:46:59.483Z,27.40
2018-11-22T12:47:59.492Z,26.30
2018-11-22T12:48:59.499Z,26.00
2018-11-22T12:49:59.514Z,25.40
2018-11-22T12:50:59.520Z,25.70
2018-11-22T12:51:59.537Z,25.60
2018-11-22T12:52:59.543Z,26.30